sensor_id;sensor_type;location;lat;lon;timestamp;P1;durP1;ratioP1;P2;durP2;ratioP2
74196;SDS011;62555;52.678;4.900;2023-04-25T00:00:25;4.13;;;1.90;;
74196;SDS011;62555;52.678;4.900;2023-04-25T00:02:50;4.63;;;1.70;;
74196;SDS011;62555;52.678;4.900;2023-04-25T00:05:16;6.40;;;2.03;;
74196;SDS011;62555;52.678;4.900;2023-04-25T00:07:41;3.07;;;1.53;;
74196;SDS011;62555;52.678;4.900;2023-04-25T00:10:09;3.92;;;1.60;;
74196;SDS011;62555;52.678;4.900;2023-04-25T00:12:36;4.28;;;1.73;;
74196;SDS011;62555;52.678;4.900;2023-04-25T00:15:01;4.07;;;1.33;;
74196;SDS011;62555;52.678;4.900;2023-04-25T00:17:26;3.42;;;1.75;;
74196;SDS011;62555;52.678;4.900;2023-04-25T00:19:52;3.33;;;1.20;;
74196;SDS011;62555;52.678;4.900;2023-04-25T00:22:17;3.72;;;1.38;;
74196;SDS011;62555;52.678;4.900;2023-04-25T00:24:42;2.60;;;1.37;;
74196;SDS011;62555;52.678;4.900;2023-04-25T00:27:08;2.50;;;1.40;;
74196;SDS011;62555;52.678;4.900;2023-04-25T00:29:33;3.67;;;1.37;;
74196;SDS011;62555;52.678;4.900;2023-04-25T00:31:58;2.57;;;1.20;;
74196;SDS011;62555;52.678;4.900;2023-04-25T00:34:23;3.43;;;1.30;;
74196;SDS011;62555;52.678;4.900;2023-04-25T00:36:48;3.57;;;1.50;;
74196;SDS011;62555;52.678;4.900;2023-04-25T00:39:13;3.73;;;1.53;;
74196;SDS011;62555;52.678;4.900;2023-04-25T00:41:39;3.17;;;1.20;;
74196;SDS011;62555;52.678;4.900;2023-04-25T00:44:04;2.95;;;1.77;;
74196;SDS011;62555;52.678;4.900;2023-04-25T00:46:31;2.42;;;1.27;;
74196;SDS011;62555;52.678;4.900;2023-04-25T00:48:57;3.13;;;1.63;;
74196;SDS011;62555;52.678;4.900;2023-04-25T00:51:22;4.70;;;1.50;;
74196;SDS011;62555;52.678;4.900;2023-04-25T00:53:48;5.28;;;1.98;;
74196;SDS011;62555;52.678;4.900;2023-04-25T00:56:14;3.20;;;1.13;;
74196;SDS011;62555;52.678;4.900;2023-04-25T00:58:40;3.75;;;1.60;;
74196;SDS011;62555;52.678;4.900;2023-04-25T01:01:05;3.67;;;1.55;;
74196;SDS011;62555;52.678;4.900;2023-04-25T01:03:32;2.17;;;1.30;;
74196;SDS011;62555;52.678;4.900;2023-04-25T01:05:58;3.22;;;1.55;;
74196;SDS011;62555;52.678;4.900;2023-04-25T01:08:23;3.85;;;1.45;;
74196;SDS011;62555;52.678;4.900;2023-04-25T01:10:48;3.22;;;2.28;;
74196;SDS011;62555;52.678;4.900;2023-04-25T01:13:14;2.37;;;1.10;;
74196;SDS011;62555;52.678;4.900;2023-04-25T01:15:39;2.65;;;1.23;;
74196;SDS011;62555;52.678;4.900;2023-04-25T01:18:05;3.03;;;1.55;;
74196;SDS011;62555;52.678;4.900;2023-04-25T01:20:30;3.58;;;1.52;;
74196;SDS011;62555;52.678;4.900;2023-04-25T01:22:56;3.00;;;1.55;;
74196;SDS011;62555;52.678;4.900;2023-04-25T01:25:23;2.13;;;1.43;;
74196;SDS011;62555;52.678;4.900;2023-04-25T01:27:48;2.35;;;1.45;;
74196;SDS011;62555;52.678;4.900;2023-04-25T01:30:14;4.13;;;1.83;;
74196;SDS011;62555;52.678;4.900;2023-04-25T01:32:39;2.95;;;1.58;;
74196;SDS011;62555;52.678;4.900;2023-04-25T01:35:05;3.15;;;1.40;;
74196;SDS011;62555;52.678;4.900;2023-04-25T01:37:37;3.65;;;1.55;;
74196;SDS011;62555;52.678;4.900;2023-04-25T01:40:03;3.22;;;1.35;;
74196;SDS011;62555;52.678;4.900;2023-04-25T01:42:30;3.53;;;1.30;;
74196;SDS011;62555;52.678;4.900;2023-04-25T01:44:55;2.07;;;1.30;;
74196;SDS011;62555;52.678;4.900;2023-04-25T01:47:20;4.47;;;1.63;;
74196;SDS011;62555;52.678;4.900;2023-04-25T01:49:45;2.30;;;1.20;;
74196;SDS011;62555;52.678;4.900;2023-04-25T01:52:10;2.13;;;1.63;;
74196;SDS011;62555;52.678;4.900;2023-04-25T01:54:36;2.53;;;1.30;;
74196;SDS011;62555;52.678;4.900;2023-04-25T01:57:01;3.63;;;1.40;;
74196;SDS011;62555;52.678;4.900;2023-04-25T01:59:26;3.38;;;1.25;;
74196;SDS011;62555;52.678;4.900;2023-04-25T02:01:51;2.90;;;1.20;;
74196;SDS011;62555;52.678;4.900;2023-04-25T02:04:17;2.43;;;1.27;;
74196;SDS011;62555;52.678;4.900;2023-04-25T02:06:42;3.13;;;1.53;;
74196;SDS011;62555;52.678;4.900;2023-04-25T02:09:07;2.78;;;1.35;;
74196;SDS011;62555;52.678;4.900;2023-04-25T02:11:32;3.20;;;1.93;;
74196;SDS011;62555;52.678;4.900;2023-04-25T02:13:57;3.90;;;1.73;;
74196;SDS011;62555;52.678;4.900;2023-04-25T02:16:22;3.75;;;1.48;;
74196;SDS011;62555;52.678;4.900;2023-04-25T02:18:48;2.35;;;1.25;;
74196;SDS011;62555;52.678;4.900;2023-04-25T02:21:13;6.30;;;1.57;;
74196;SDS011;62555;52.678;4.900;2023-04-25T02:23:38;5.03;;;1.90;;
74196;SDS011;62555;52.678;4.900;2023-04-25T02:26:03;3.87;;;1.20;;
74196;SDS011;62555;52.678;4.900;2023-04-25T02:28:29;3.25;;;1.48;;
74196;SDS011;62555;52.678;4.900;2023-04-25T02:30:54;3.13;;;1.30;;
74196;SDS011;62555;52.678;4.900;2023-04-25T02:33:19;3.10;;;1.10;;
74196;SDS011;62555;52.678;4.900;2023-04-25T02:35:45;2.08;;;1.05;;
74196;SDS011;62555;52.678;4.900;2023-04-25T02:38:11;3.60;;;1.47;;
74196;SDS011;62555;52.678;4.900;2023-04-25T02:40:36;3.60;;;1.37;;
74196;SDS011;62555;52.678;4.900;2023-04-25T02:43:01;4.73;;;1.57;;
74196;SDS011;62555;52.678;4.900;2023-04-25T02:45:26;2.67;;;1.50;;
74196;SDS011;62555;52.678;4.900;2023-04-25T02:47:51;1.80;;;1.33;;
74196;SDS011;62555;52.678;4.900;2023-04-25T02:50:16;1.50;;;1.20;;
74196;SDS011;62555;52.678;4.900;2023-04-25T02:52:43;2.90;;;1.30;;
74196;SDS011;62555;52.678;4.900;2023-04-25T02:55:08;2.93;;;1.10;;
74196;SDS011;62555;52.678;4.900;2023-04-25T02:57:33;1.63;;;1.07;;
74196;SDS011;62555;52.678;4.900;2023-04-25T02:59:59;2.37;;;1.00;;
74196;SDS011;62555;52.678;4.900;2023-04-25T03:02:24;3.33;;;1.13;;
74196;SDS011;62555;52.678;4.900;2023-04-25T03:04:49;2.87;;;1.40;;
74196;SDS011;62555;52.678;4.900;2023-04-25T03:07:14;3.83;;;1.20;;
74196;SDS011;62555;52.678;4.900;2023-04-25T03:09:40;3.07;;;1.40;;
74196;SDS011;62555;52.678;4.900;2023-04-25T03:12:05;2.37;;;1.10;;
74196;SDS011;62555;52.678;4.900;2023-04-25T03:14:30;1.37;;;0.73;;
74196;SDS011;62555;52.678;4.900;2023-04-25T03:16:55;2.37;;;0.90;;
74196;SDS011;62555;52.678;4.900;2023-04-25T03:19:20;2.67;;;1.10;;
74196;SDS011;62555;52.678;4.900;2023-04-25T03:21:45;2.92;;;1.00;;
74196;SDS011;62555;52.678;4.900;2023-04-25T03:24:11;3.93;;;1.37;;
74196;SDS011;62555;52.678;4.900;2023-04-25T03:26:36;2.15;;;1.27;;
74196;SDS011;62555;52.678;4.900;2023-04-25T03:29:02;2.70;;;1.30;;
74196;SDS011;62555;52.678;4.900;2023-04-25T03:31:27;2.27;;;1.10;;
74196;SDS011;62555;52.678;4.900;2023-04-25T03:33:52;4.00;;;1.50;;
74196;SDS011;62555;52.678;4.900;2023-04-25T03:36:17;3.50;;;1.30;;
74196;SDS011;62555;52.678;4.900;2023-04-25T03:38:42;4.10;;;1.77;;
74196;SDS011;62555;52.678;4.900;2023-04-25T03:41:08;2.33;;;1.00;;
74196;SDS011;62555;52.678;4.900;2023-04-25T03:43:33;3.47;;;0.85;;
74196;SDS011;62555;52.678;4.900;2023-04-25T03:45:58;2.07;;;0.80;;
74196;SDS011;62555;52.678;4.900;2023-04-25T03:48:23;4.00;;;1.43;;
74196;SDS011;62555;52.678;4.900;2023-04-25T03:50:50;1.95;;;1.20;;
74196;SDS011;62555;52.678;4.900;2023-04-25T03:53:16;1.93;;;1.13;;
74196;SDS011;62555;52.678;4.900;2023-04-25T03:55:41;1.90;;;1.30;;
74196;SDS011;62555;52.678;4.900;2023-04-25T03:58:06;2.87;;;1.10;;
74196;SDS011;62555;52.678;4.900;2023-04-25T04:00:33;2.35;;;1.30;;
74196;SDS011;62555;52.678;4.900;2023-04-25T04:02:58;2.23;;;0.83;;
74196;SDS011;62555;52.678;4.900;2023-04-25T04:05:23;2.47;;;0.88;;
74196;SDS011;62555;52.678;4.900;2023-04-25T04:07:48;1.57;;;1.20;;
74196;SDS011;62555;52.678;4.900;2023-04-25T04:10:13;1.87;;;1.20;;
74196;SDS011;62555;52.678;4.900;2023-04-25T04:12:38;2.87;;;0.93;;
74196;SDS011;62555;52.678;4.900;2023-04-25T04:15:04;2.13;;;1.10;;
74196;SDS011;62555;52.678;4.900;2023-04-25T04:17:30;1.33;;;1.15;;
74196;SDS011;62555;52.678;4.900;2023-04-25T04:19:55;3.20;;;1.17;;
74196;SDS011;62555;52.678;4.900;2023-04-25T04:22:21;1.70;;;0.95;;
74196;SDS011;62555;52.678;4.900;2023-04-25T04:24:46;2.42;;;1.20;;
74196;SDS011;62555;52.678;4.900;2023-04-25T04:27:13;2.35;;;0.93;;
74196;SDS011;62555;52.678;4.900;2023-04-25T04:29:38;2.08;;;0.88;;
74196;SDS011;62555;52.678;4.900;2023-04-25T04:32:03;2.20;;;0.80;;
74196;SDS011;62555;52.678;4.900;2023-04-25T04:34:29;2.55;;;1.52;;
74196;SDS011;62555;52.678;4.900;2023-04-25T04:36:55;3.65;;;1.60;;
74196;SDS011;62555;52.678;4.900;2023-04-25T04:39:21;3.60;;;1.08;;
74196;SDS011;62555;52.678;4.900;2023-04-25T04:41:47;2.00;;;0.70;;
74196;SDS011;62555;52.678;4.900;2023-04-25T04:44:12;2.10;;;1.00;;
74196;SDS011;62555;52.678;4.900;2023-04-25T04:46:37;2.87;;;1.17;;
74196;SDS011;62555;52.678;4.900;2023-04-25T04:49:07;2.95;;;1.02;;
74196;SDS011;62555;52.678;4.900;2023-04-25T04:51:32;1.35;;;0.88;;
74196;SDS011;62555;52.678;4.900;2023-04-25T04:53:58;1.77;;;0.70;;
74196;SDS011;62555;52.678;4.900;2023-04-25T04:56:26;1.15;;;0.80;;
74196;SDS011;62555;52.678;4.900;2023-04-25T04:58:51;1.87;;;0.73;;
74196;SDS011;62555;52.678;4.900;2023-04-25T05:01:17;3.35;;;1.52;;
74196;SDS011;62555;52.678;4.900;2023-04-25T05:03:42;2.50;;;0.90;;
74196;SDS011;62555;52.678;4.900;2023-04-25T05:06:07;1.63;;;0.73;;
74196;SDS011;62555;52.678;4.900;2023-04-25T05:08:33;2.60;;;0.95;;
74196;SDS011;62555;52.678;4.900;2023-04-25T05:10:58;1.47;;;0.90;;
74196;SDS011;62555;52.678;4.900;2023-04-25T05:13:24;2.33;;;0.77;;
74196;SDS011;62555;52.678;4.900;2023-04-25T05:15:49;3.30;;;0.90;;
74196;SDS011;62555;52.678;4.900;2023-04-25T05:18:14;2.40;;;0.80;;
74196;SDS011;62555;52.678;4.900;2023-04-25T05:20:39;1.58;;;0.68;;
74196;SDS011;62555;52.678;4.900;2023-04-25T05:23:05;3.07;;;0.77;;
74196;SDS011;62555;52.678;4.900;2023-04-25T05:25:30;2.00;;;1.10;;
74196;SDS011;62555;52.678;4.900;2023-04-25T05:27:55;0.70;;;0.52;;
74196;SDS011;62555;52.678;4.900;2023-04-25T05:30:21;3.13;;;1.13;;
74196;SDS011;62555;52.678;4.900;2023-04-25T05:32:46;1.23;;;0.57;;
74196;SDS011;62555;52.678;4.900;2023-04-25T05:35:12;2.85;;;1.08;;
74196;SDS011;62555;52.678;4.900;2023-04-25T05:37:37;0.70;;;0.60;;
74196;SDS011;62555;52.678;4.900;2023-04-25T05:40:03;1.20;;;0.67;;
74196;SDS011;62555;52.678;4.900;2023-04-25T05:42:31;2.20;;;0.82;;
74196;SDS011;62555;52.678;4.900;2023-04-25T05:44:56;1.93;;;0.70;;
74196;SDS011;62555;52.678;4.900;2023-04-25T05:47:21;1.63;;;0.63;;
74196;SDS011;62555;52.678;4.900;2023-04-25T05:49:47;1.90;;;0.97;;
74196;SDS011;62555;52.678;4.900;2023-04-25T05:52:12;2.43;;;0.93;;
74196;SDS011;62555;52.678;4.900;2023-04-25T05:54:37;3.10;;;0.90;;
74196;SDS011;62555;52.678;4.900;2023-04-25T05:57:02;2.20;;;0.73;;
74196;SDS011;62555;52.678;4.900;2023-04-25T05:59:27;2.78;;;0.65;;
74196;SDS011;62555;52.678;4.900;2023-04-25T06:01:52;3.58;;;0.82;;
74196;SDS011;62555;52.678;4.900;2023-04-25T06:04:17;2.33;;;1.00;;
74196;SDS011;62555;52.678;4.900;2023-04-25T06:06:43;3.80;;;0.90;;
74196;SDS011;62555;52.678;4.900;2023-04-25T06:09:08;3.07;;;0.87;;
74196;SDS011;62555;52.678;4.900;2023-04-25T06:11:33;3.13;;;0.83;;
74196;SDS011;62555;52.678;4.900;2023-04-25T06:13:58;2.43;;;0.80;;
74196;SDS011;62555;52.678;4.900;2023-04-25T06:16:23;2.20;;;0.60;;
74196;SDS011;62555;52.678;4.900;2023-04-25T06:18:50;1.15;;;0.70;;
74196;SDS011;62555;52.678;4.900;2023-04-25T06:21:15;1.30;;;0.70;;
74196;SDS011;62555;52.678;4.900;2023-04-25T06:23:41;1.70;;;0.70;;
74196;SDS011;62555;52.678;4.900;2023-04-25T06:26:06;1.93;;;0.90;;
74196;SDS011;62555;52.678;4.900;2023-04-25T06:28:31;1.33;;;0.50;;
74196;SDS011;62555;52.678;4.900;2023-04-25T06:30:56;1.33;;;0.63;;
74196;SDS011;62555;52.678;4.900;2023-04-25T06:33:21;1.43;;;0.67;;
74196;SDS011;62555;52.678;4.900;2023-04-25T06:35:47;1.70;;;0.80;;
74196;SDS011;62555;52.678;4.900;2023-04-25T06:38:12;2.67;;;0.80;;
74196;SDS011;62555;52.678;4.900;2023-04-25T06:40:37;2.70;;;0.60;;
74196;SDS011;62555;52.678;4.900;2023-04-25T06:43:02;2.40;;;0.67;;
74196;SDS011;62555;52.678;4.900;2023-04-25T06:45:27;1.20;;;0.70;;
74196;SDS011;62555;52.678;4.900;2023-04-25T06:47:53;2.13;;;0.80;;
74196;SDS011;62555;52.678;4.900;2023-04-25T06:50:18;1.57;;;0.57;;
74196;SDS011;62555;52.678;4.900;2023-04-25T06:52:43;1.80;;;0.70;;
74196;SDS011;62555;52.678;4.900;2023-04-25T06:55:08;1.30;;;0.63;;
74196;SDS011;62555;52.678;4.900;2023-04-25T06:57:33;1.88;;;0.60;;
74196;SDS011;62555;52.678;4.900;2023-04-25T06:59:59;1.90;;;0.60;;
74196;SDS011;62555;52.678;4.900;2023-04-25T07:02:24;1.23;;;1.03;;
74196;SDS011;62555;52.678;4.900;2023-04-25T07:04:49;1.93;;;0.53;;
74196;SDS011;62555;52.678;4.900;2023-04-25T07:07:14;2.17;;;0.80;;
74196;SDS011;62555;52.678;4.900;2023-04-25T07:09:40;1.87;;;0.80;;
74196;SDS011;62555;52.678;4.900;2023-04-25T07:12:05;1.90;;;0.70;;
74196;SDS011;62555;52.678;4.900;2023-04-25T07:14:30;1.15;;;0.60;;
74196;SDS011;62555;52.678;4.900;2023-04-25T07:16:55;2.33;;;0.53;;
74196;SDS011;62555;52.678;4.900;2023-04-25T07:19:21;1.48;;;0.55;;
74196;SDS011;62555;52.678;4.900;2023-04-25T07:21:48;1.20;;;0.70;;
74196;SDS011;62555;52.678;4.900;2023-04-25T07:24:13;1.13;;;0.70;;
74196;SDS011;62555;52.678;4.900;2023-04-25T07:26:39;0.70;;;0.60;;
74196;SDS011;62555;52.678;4.900;2023-04-25T07:29:04;1.50;;;0.60;;
74196;SDS011;62555;52.678;4.900;2023-04-25T07:31:29;2.95;;;0.60;;
74196;SDS011;62555;52.678;4.900;2023-04-25T07:33:55;1.25;;;0.52;;
74196;SDS011;62555;52.678;4.900;2023-04-25T07:36:20;1.38;;;0.45;;
74196;SDS011;62555;52.678;4.900;2023-04-25T07:38:45;1.15;;;0.63;;
74196;SDS011;62555;52.678;4.900;2023-04-25T07:41:11;1.50;;;0.60;;
74196;SDS011;62555;52.678;4.900;2023-04-25T07:43:36;2.67;;;0.60;;
74196;SDS011;62555;52.678;4.900;2023-04-25T07:46:01;1.17;;;0.53;;
74196;SDS011;62555;52.678;4.900;2023-04-25T07:48:27;1.58;;;0.60;;
74196;SDS011;62555;52.678;4.900;2023-04-25T07:50:52;2.60;;;0.50;;
74196;SDS011;62555;52.678;4.900;2023-04-25T07:53:17;0.80;;;0.50;;
74196;SDS011;62555;52.678;4.900;2023-04-25T07:55:43;1.13;;;0.43;;
74196;SDS011;62555;52.678;4.900;2023-04-25T07:58:08;1.27;;;0.70;;
74196;SDS011;62555;52.678;4.900;2023-04-25T08:00:34;1.80;;;0.52;;
74196;SDS011;62555;52.678;4.900;2023-04-25T08:02:59;1.50;;;0.60;;
74196;SDS011;62555;52.678;4.900;2023-04-25T08:05:24;2.07;;;0.60;;
74196;SDS011;62555;52.678;4.900;2023-04-25T08:07:50;0.90;;;0.50;;
74196;SDS011;62555;52.678;4.900;2023-04-25T08:10:15;1.55;;;0.60;;
74196;SDS011;62555;52.678;4.900;2023-04-25T08:12:40;1.13;;;0.50;;
74196;SDS011;62555;52.678;4.900;2023-04-25T08:15:06;1.03;;;0.50;;
74196;SDS011;62555;52.678;4.900;2023-04-25T08:17:31;1.00;;;0.50;;
74196;SDS011;62555;52.678;4.900;2023-04-25T08:19:56;1.70;;;0.40;;
74196;SDS011;62555;52.678;4.900;2023-04-25T08:22:22;1.65;;;0.45;;
74196;SDS011;62555;52.678;4.900;2023-04-25T08:24:47;1.50;;;0.60;;
74196;SDS011;62555;52.678;4.900;2023-04-25T08:27:12;2.00;;;0.70;;
74196;SDS011;62555;52.678;4.900;2023-04-25T08:29:37;1.33;;;0.45;;
74196;SDS011;62555;52.678;4.900;2023-04-25T08:32:03;1.77;;;0.77;;
74196;SDS011;62555;52.678;4.900;2023-04-25T08:34:28;2.23;;;1.07;;
74196;SDS011;62555;52.678;4.900;2023-04-25T08:36:53;1.83;;;0.80;;
74196;SDS011;62555;52.678;4.900;2023-04-25T08:39:18;1.37;;;0.40;;
74196;SDS011;62555;52.678;4.900;2023-04-25T08:41:44;0.90;;;0.50;;
74196;SDS011;62555;52.678;4.900;2023-04-25T08:44:10;0.95;;;0.35;;
74196;SDS011;62555;52.678;4.900;2023-04-25T08:46:35;1.25;;;0.43;;
74196;SDS011;62555;52.678;4.900;2023-04-25T08:51:28;0.57;;;0.30;;
74196;SDS011;62555;52.678;4.900;2023-04-25T08:53:55;0.98;;;0.50;;
74196;SDS011;62555;52.678;4.900;2023-04-25T08:56:21;1.53;;;0.60;;
74196;SDS011;62555;52.678;4.900;2023-04-25T08:58:48;1.80;;;0.65;;
74196;SDS011;62555;52.678;4.900;2023-04-25T09:01:14;1.65;;;0.40;;
74196;SDS011;62555;52.678;4.900;2023-04-25T09:03:40;0.90;;;0.40;;
74196;SDS011;62555;52.678;4.900;2023-04-25T09:06:05;0.73;;;0.50;;
74196;SDS011;62555;52.678;4.900;2023-04-25T09:08:30;0.80;;;0.37;;
74196;SDS011;62555;52.678;4.900;2023-04-25T09:10:55;1.73;;;0.60;;
74196;SDS011;62555;52.678;4.900;2023-04-25T09:13:25;1.23;;;0.63;;
74196;SDS011;62555;52.678;4.900;2023-04-25T09:15:51;1.55;;;0.60;;
74196;SDS011;62555;52.678;4.900;2023-04-25T09:20:49;1.50;;;0.60;;
74196;SDS011;62555;52.678;4.900;2023-04-25T09:23:14;1.37;;;0.73;;
74196;SDS011;62555;52.678;4.900;2023-04-25T09:25:39;2.20;;;0.85;;
74196;SDS011;62555;52.678;4.900;2023-04-25T09:28:05;1.77;;;0.50;;
74196;SDS011;62555;52.678;4.900;2023-04-25T09:30:31;1.80;;;0.50;;
74196;SDS011;62555;52.678;4.900;2023-04-25T09:32:57;1.67;;;0.68;;
74196;SDS011;62555;52.678;4.900;2023-04-25T09:35:28;2.72;;;0.75;;
74196;SDS011;62555;52.678;4.900;2023-04-25T09:37:53;1.73;;;0.50;;
74196;SDS011;62555;52.678;4.900;2023-04-25T09:40:18;1.23;;;0.77;;
74196;SDS011;62555;52.678;4.900;2023-04-25T09:42:44;1.57;;;0.70;;
74196;SDS011;62555;52.678;4.900;2023-04-25T09:45:09;1.95;;;0.90;;
74196;SDS011;62555;52.678;4.900;2023-04-25T09:47:37;1.95;;;0.70;;
74196;SDS011;62555;52.678;4.900;2023-04-25T09:50:03;0.93;;;0.50;;
74196;SDS011;62555;52.678;4.900;2023-04-25T09:52:38;1.75;;;0.68;;
74196;SDS011;62555;52.678;4.900;2023-04-25T09:55:03;2.47;;;0.63;;
74196;SDS011;62555;52.678;4.900;2023-04-25T09:57:28;1.55;;;0.47;;
74196;SDS011;62555;52.678;4.900;2023-04-25T09:59:54;2.53;;;0.95;;
74196;SDS011;62555;52.678;4.900;2023-04-25T10:02:20;1.10;;;0.50;;
74196;SDS011;62555;52.678;4.900;2023-04-25T10:04:49;1.95;;;0.60;;
74196;SDS011;62555;52.678;4.900;2023-04-25T10:07:17;1.70;;;0.60;;
74196;SDS011;62555;52.678;4.900;2023-04-25T10:09:42;1.05;;;0.57;;
74196;SDS011;62555;52.678;4.900;2023-04-25T10:12:10;1.00;;;0.40;;
74196;SDS011;62555;52.678;4.900;2023-04-25T10:14:35;1.92;;;0.45;;
74196;SDS011;62555;52.678;4.900;2023-04-25T10:17:01;1.90;;;0.70;;
74196;SDS011;62555;52.678;4.900;2023-04-25T10:19:26;2.22;;;0.57;;
74196;SDS011;62555;52.678;4.900;2023-04-25T10:22:07;0.70;;;0.43;;
74196;SDS011;62555;52.678;4.900;2023-04-25T10:24:34;1.13;;;0.50;;
74196;SDS011;62555;52.678;4.900;2023-04-25T10:27:00;1.17;;;0.40;;
74196;SDS011;62555;52.678;4.900;2023-04-25T10:29:26;1.55;;;0.50;;
74196;SDS011;62555;52.678;4.900;2023-04-25T10:31:52;1.15;;;0.40;;
74196;SDS011;62555;52.678;4.900;2023-04-25T10:34:17;1.70;;;0.60;;
74196;SDS011;62555;52.678;4.900;2023-04-25T10:36:43;1.33;;;0.60;;
74196;SDS011;62555;52.678;4.900;2023-04-25T10:39:13;0.93;;;0.50;;
74196;SDS011;62555;52.678;4.900;2023-04-25T10:41:46;1.50;;;0.75;;
74196;SDS011;62555;52.678;4.900;2023-04-25T10:44:12;1.92;;;0.60;;
74196;SDS011;62555;52.678;4.900;2023-04-25T10:46:38;1.83;;;0.40;;
74196;SDS011;62555;52.678;4.900;2023-04-25T10:49:03;1.67;;;0.60;;
74196;SDS011;62555;52.678;4.900;2023-04-25T10:51:29;2.23;;;0.70;;
74196;SDS011;62555;52.678;4.900;2023-04-25T10:53:56;0.82;;;0.55;;
74196;SDS011;62555;52.678;4.900;2023-04-25T10:56:22;1.45;;;0.55;;
74196;SDS011;62555;52.678;4.900;2023-04-25T10:58:48;2.42;;;0.60;;
74196;SDS011;62555;52.678;4.900;2023-04-25T11:01:14;1.20;;;0.70;;
74196;SDS011;62555;52.678;4.900;2023-04-25T11:03:40;1.35;;;0.50;;
74196;SDS011;62555;52.678;4.900;2023-04-25T11:06:06;1.45;;;0.90;;
74196;SDS011;62555;52.678;4.900;2023-04-25T11:08:40;1.80;;;0.80;;
74196;SDS011;62555;52.678;4.900;2023-04-25T11:11:08;1.00;;;0.55;;
74196;SDS011;62555;52.678;4.900;2023-04-25T11:13:34;1.13;;;0.65;;
74196;SDS011;62555;52.678;4.900;2023-04-25T11:15:59;1.92;;;0.57;;
74196;SDS011;62555;52.678;4.900;2023-04-25T11:18:25;1.13;;;0.47;;
74196;SDS011;62555;52.678;4.900;2023-04-25T11:20:51;1.23;;;0.68;;
74196;SDS011;62555;52.678;4.900;2023-04-25T11:23:16;1.33;;;0.53;;
74196;SDS011;62555;52.678;4.900;2023-04-25T11:25:41;1.20;;;0.80;;
74196;SDS011;62555;52.678;4.900;2023-04-25T11:28:07;1.75;;;0.70;;
74196;SDS011;62555;52.678;4.900;2023-04-25T11:30:32;0.60;;;0.30;;
74196;SDS011;62555;52.678;4.900;2023-04-25T11:32:57;2.13;;;0.50;;
74196;SDS011;62555;52.678;4.900;2023-04-25T11:35:22;1.17;;;0.50;;
74196;SDS011;62555;52.678;4.900;2023-04-25T11:37:48;0.47;;;0.30;;
74196;SDS011;62555;52.678;4.900;2023-04-25T11:40:14;0.50;;;0.30;;
74196;SDS011;62555;52.678;4.900;2023-04-25T11:42:42;1.52;;;0.90;;
74196;SDS011;62555;52.678;4.900;2023-04-25T11:45:08;1.52;;;0.57;;
74196;SDS011;62555;52.678;4.900;2023-04-25T11:47:34;0.80;;;0.50;;
74196;SDS011;62555;52.678;4.900;2023-04-25T11:50:00;0.80;;;0.47;;
74196;SDS011;62555;52.678;4.900;2023-04-25T11:52:35;1.88;;;0.68;;
74196;SDS011;62555;52.678;4.900;2023-04-25T11:55:00;2.45;;;0.60;;
74196;SDS011;62555;52.678;4.900;2023-04-25T11:57:25;1.80;;;0.50;;
74196;SDS011;62555;52.678;4.900;2023-04-25T11:59:50;1.00;;;0.50;;
74196;SDS011;62555;52.678;4.900;2023-04-25T12:02:25;1.38;;;0.70;;
74196;SDS011;62555;52.678;4.900;2023-04-25T12:04:51;1.73;;;0.70;;
74196;SDS011;62555;52.678;4.900;2023-04-25T12:07:16;2.33;;;0.60;;
74196;SDS011;62555;52.678;4.900;2023-04-25T12:09:41;1.87;;;0.60;;
74196;SDS011;62555;52.678;4.900;2023-04-25T12:12:09;2.07;;;0.63;;
74196;SDS011;62555;52.678;4.900;2023-04-25T12:14:35;2.38;;;0.63;;
74196;SDS011;62555;52.678;4.900;2023-04-25T12:17:01;2.45;;;1.05;;
74196;SDS011;62555;52.678;4.900;2023-04-25T12:19:31;1.92;;;0.63;;
74196;SDS011;62555;52.678;4.900;2023-04-25T12:21:58;3.00;;;0.82;;
74196;SDS011;62555;52.678;4.900;2023-04-25T12:24:25;1.90;;;0.70;;
74196;SDS011;62555;52.678;4.900;2023-04-25T12:29:17;2.20;;;0.55;;
74196;SDS011;62555;52.678;4.900;2023-04-25T12:31:42;2.22;;;1.23;;
74196;SDS011;62555;52.678;4.900;2023-04-25T12:34:07;2.27;;;0.70;;
74196;SDS011;62555;52.678;4.900;2023-04-25T12:36:33;1.40;;;0.52;;
74196;SDS011;62555;52.678;4.900;2023-04-25T12:38:58;1.67;;;0.57;;
74196;SDS011;62555;52.678;4.900;2023-04-25T12:41:28;1.88;;;0.70;;
74196;SDS011;62555;52.678;4.900;2023-04-25T12:43:54;1.42;;;0.73;;
74196;SDS011;62555;52.678;4.900;2023-04-25T12:46:19;1.17;;;0.60;;
74196;SDS011;62555;52.678;4.900;2023-04-25T12:48:44;1.27;;;0.60;;
74196;SDS011;62555;52.678;4.900;2023-04-25T12:51:09;1.63;;;0.63;;
74196;SDS011;62555;52.678;4.900;2023-04-25T12:53:35;1.43;;;0.87;;
74196;SDS011;62555;52.678;4.900;2023-04-25T12:56:02;1.58;;;0.63;;
74196;SDS011;62555;52.678;4.900;2023-04-25T12:58:27;1.57;;;0.83;;
74196;SDS011;62555;52.678;4.900;2023-04-25T13:00:52;1.20;;;0.60;;
74196;SDS011;62555;52.678;4.900;2023-04-25T13:03:17;1.40;;;0.50;;
74196;SDS011;62555;52.678;4.900;2023-04-25T13:05:43;1.00;;;0.57;;
74196;SDS011;62555;52.678;4.900;2023-04-25T13:08:08;3.03;;;0.90;;
74196;SDS011;62555;52.678;4.900;2023-04-25T13:10:33;1.20;;;0.70;;
74196;SDS011;62555;52.678;4.900;2023-04-25T13:12:59;2.73;;;0.63;;
74196;SDS011;62555;52.678;4.900;2023-04-25T13:15:24;1.67;;;0.50;;
74196;SDS011;62555;52.678;4.900;2023-04-25T13:17:49;1.85;;;0.77;;
74196;SDS011;62555;52.678;4.900;2023-04-25T13:20:14;1.33;;;0.60;;
74196;SDS011;62555;52.678;4.900;2023-04-25T13:22:40;1.63;;;0.80;;
74196;SDS011;62555;52.678;4.900;2023-04-25T13:25:06;1.33;;;0.60;;
74196;SDS011;62555;52.678;4.900;2023-04-25T13:27:32;2.80;;;0.90;;
74196;SDS011;62555;52.678;4.900;2023-04-25T13:29:58;3.33;;;0.80;;
74196;SDS011;62555;52.678;4.900;2023-04-25T13:32:24;1.45;;;0.50;;
74196;SDS011;62555;52.678;4.900;2023-04-25T13:34:50;1.60;;;0.70;;
74196;SDS011;62555;52.678;4.900;2023-04-25T13:37:15;1.58;;;0.70;;
74196;SDS011;62555;52.678;4.900;2023-04-25T13:39:40;1.85;;;0.85;;
74196;SDS011;62555;52.678;4.900;2023-04-25T13:42:06;2.55;;;1.63;;
74196;SDS011;62555;52.678;4.900;2023-04-25T13:44:31;3.20;;;2.67;;
74196;SDS011;62555;52.678;4.900;2023-04-25T13:46:56;5.83;;;4.80;;
74196;SDS011;62555;52.678;4.900;2023-04-25T13:49:21;8.00;;;6.63;;
74196;SDS011;62555;52.678;4.900;2023-04-25T13:51:47;8.50;;;7.38;;
74196;SDS011;62555;52.678;4.900;2023-04-25T13:54:13;11.80;;;8.90;;
74196;SDS011;62555;52.678;4.900;2023-04-25T13:56:38;12.33;;;11.00;;
74196;SDS011;62555;52.678;4.900;2023-04-25T13:59:03;13.17;;;10.40;;
74196;SDS011;62555;52.678;4.900;2023-04-25T14:01:28;16.03;;;11.87;;
74196;SDS011;62555;52.678;4.900;2023-04-25T14:03:55;13.70;;;11.40;;
74196;SDS011;62555;52.678;4.900;2023-04-25T14:06:21;15.25;;;13.45;;
74196;SDS011;62555;52.678;4.900;2023-04-25T14:08:49;15.38;;;13.75;;
74196;SDS011;62555;52.678;4.900;2023-04-25T14:11:14;15.40;;;13.52;;
74196;SDS011;62555;52.678;4.900;2023-04-25T14:13:39;17.63;;;15.90;;
74196;SDS011;62555;52.678;4.900;2023-04-25T14:16:05;21.70;;;17.70;;
74196;SDS011;62555;52.678;4.900;2023-04-25T14:18:30;18.57;;;16.63;;
74196;SDS011;62555;52.678;4.900;2023-04-25T14:20:55;19.15;;;17.15;;
74196;SDS011;62555;52.678;4.900;2023-04-25T14:23:20;19.57;;;17.57;;
74196;SDS011;62555;52.678;4.900;2023-04-25T14:25:45;20.30;;;18.20;;
74196;SDS011;62555;52.678;4.900;2023-04-25T14:28:11;24.17;;;19.43;;
74196;SDS011;62555;52.678;4.900;2023-04-25T14:30:36;20.20;;;17.75;;
74196;SDS011;62555;52.678;4.900;2023-04-25T14:33:01;20.83;;;18.73;;
74196;SDS011;62555;52.678;4.900;2023-04-25T14:35:26;22.63;;;20.27;;
74196;SDS011;62555;52.678;4.900;2023-04-25T14:37:52;23.00;;;20.00;;
74196;SDS011;62555;52.678;4.900;2023-04-25T14:40:17;24.58;;;20.60;;
74196;SDS011;62555;52.678;4.900;2023-04-25T14:42:42;23.97;;;21.40;;